Thunder radar more information blitzortung!


Radar de pluja more information rain snow radar


Visita la nostra xarxa de llocs de meteo:

Template documentation
and downloads

And another site



No particular awareness of the weather is required.    There are no Weather-warnings

Pagina Historial Weather Underground text

Diari Resum Novembre 27, 2017 Unitats:  Mètric    Imperial   Tant
« Previous Dia
SegĂźent Dia »
Diari Setmana Mensual Anual Personalitzada
  Maxima: Minima: Media:
Temperatura: 12.9 °C 2.0 °C 7.8 °C
Punt de rosada: 3.0 °C -4.9 °C -0.9 °C
Humitat: 67 % 48 % 55 %
Wind Speed: 11.1 km/h 0.0 km/h 2.6 km/h
RĂ fegues de vent: 11.1 km/h - -
Vent:- - South
Pression baro: 1030.7 hPa 1018.8 hPa -
Precipitacions: 0.0 mm    
Historical Graphs
 
 
Dades de taula per Novembre 27, 2017
Temps Temperatura Punt de rosada Pression baro Vent Wind Speed RĂ fegues de vent Humitat Rainfall Rate (Hourly)
00:00 4.4 °C -4.9 °C 1030.0 hPa SE 1.9 km/h   51 % 0.0 mm
00:05 4.4 °C -4.9 °C 1030.0 hPa ENE 1.9 km/h   51 % 0.0 mm
00:10 4.3 °C -4.9 °C 1030.0 hPa WNW 1.9 km/h 1.9 km/h 51 % 0.0 mm
00:15 3.0 °C -4.7 °C 1029.0 hPa WSW 3.2 km/h 3.2 km/h 57 % 0.0 mm
00:25 2.8 °C -4.7 °C 1029.0 hPa WSW 1.6 km/h 3.2 km/h 58 % 0.0 mm
00:35 2.9 °C -4.3 °C 1029.0 hPa Calm   3.2 km/h 59 % 0.0 mm
00:45 2.7 °C -4.3 °C 1029.0 hPa Calm   1.6 km/h 60 % 0.0 mm
00:55 2.8 °C -4.2 °C 1029.0 hPa Calm   3.2 km/h 60 % 0.0 mm
01:05 2.7 °C -4.3 °C 1030.0 hPa Calm   1.6 km/h 60 % 0.0 mm
01:15 2.6 °C -4.4 °C 1030.0 hPa Calm   1.6 km/h 60 % 0.0 mm
01:25 2.4 °C -4.6 °C 1030.0 hPa NNW 3.2 km/h 3.2 km/h 60 % 0.0 mm
01:35 2.1 °C -4.7 °C 1030.0 hPa WNW 1.6 km/h 3.2 km/h 61 % 0.0 mm
01:45 2.1 °C -4.7 °C 1030.0 hPa ENE 1.6 km/h   61 % 0.0 mm
01:55 2.0 °C -4.7 °C 1030.0 hPa Calm     61 % 0.0 mm
02:05 2.0 °C -4.7 °C 1030.0 hPa Calm   3.2 km/h 61 % 0.0 mm
02:15 2.2 °C -4.3 °C 1030.0 hPa Calm   3.2 km/h 62 % 0.0 mm
02:25 2.6 °C -3.9 °C 1030.0 hPa Calm   3.2 km/h 62 % 0.0 mm
02:35 3.0 °C -3.6 °C 1030.0 hPa NNE 1.6 km/h 3.2 km/h 62 % 0.0 mm
02:45 3.6 °C -3.0 °C 1030.0 hPa NE 1.6 km/h   62 % 0.0 mm
02:55 3.7 °C -3.1 °C 1030.0 hPa NE 1.6 km/h 4.8 km/h 61 % 0.0 mm
03:05 4.3 °C -2.6 °C 1030.0 hPa NE 1.6 km/h 1.6 km/h 61 % 0.0 mm
03:15 5.0 °C -2.1 °C 1030.0 hPa Calm   1.6 km/h 60 % 0.0 mm
03:25 5.6 °C -1.8 °C 1030.0 hPa SE 1.6 km/h 1.6 km/h 59 % 0.0 mm
03:35 5.1 °C -2.5 °C 1030.0 hPa East 3.2 km/h 3.2 km/h 58 % 0.0 mm
03:45 5.1 °C -2.7 °C 1030.0 hPa ENE 3.2 km/h 4.8 km/h 57 % 0.0 mm
03:55 5.6 °C -2.3 °C 1030.7 hPa ENE 3.2 km/h 3.2 km/h 57 % 0.0 mm
04:05 5.8 °C -2.1 °C 1030.7 hPa NE 1.6 km/h 4.8 km/h 57 % 0.0 mm
04:15 6.0 °C -2.1 °C 1030.7 hPa NE 4.8 km/h 6.4 km/h 56 % 0.0 mm
04:25 6.2 °C -2.2 °C 1030.7 hPa NE 4.8 km/h 6.4 km/h 55 % 0.0 mm
04:35 7.0 °C -1.2 °C 1030.7 hPa NE 1.6 km/h 3.2 km/h 56 % 0.0 mm
10:41 7.2 °C -1.2 °C 1030.7 hPa ENE 3.7 km/h 3.7 km/h 55 % 0.0 mm
10:42 7.2 °C -1.2 °C 1030.7 hPa ENE 3.9 km/h 3.9 km/h 55 % 0.0 mm
10:46 7.4 °C -1.1 °C 1030.0 hPa SW 1.9 km/h 1.9 km/h 55 % 0.0 mm
10:51 7.8 °C -0.7 °C 1030.0 hPa ENE 3.7 km/h 3.7 km/h 55 % 0.0 mm
10:56 8.0 °C -0.8 °C 1030.0 hPa ESE 3.7 km/h 3.7 km/h 54 % 0.0 mm
11:01 8.1 °C -0.7 °C 1030.7 hPa East 3.7 km/h 3.7 km/h 54 % 0.0 mm
11:06 8.4 °C -0.4 °C 1030.7 hPa ESE 3.7 km/h 3.7 km/h 54 % 0.0 mm
11:11 8.6 °C -0.4 °C 1030.7 hPa SW 3.7 km/h 3.7 km/h 53 % 0.0 mm
11:16 8.9 °C 0.1 °C 1030.0 hPa East 1.9 km/h 1.9 km/h 54 % 0.0 mm
11:21 8.9 °C -0.2 °C 1030.0 hPa ENE 3.7 km/h 3.7 km/h 53 % 0.0 mm
11:26 9.0 °C -0.1 °C 1030.0 hPa SE 1.9 km/h 1.9 km/h 53 % 0.0 mm
11:31 9.6 °C 0.5 °C 1030.0 hPa South 2.3 km/h   53 % 0.0 mm
11:36 9.7 °C 0.6 °C 1030.0 hPa South 3.9 km/h 3.9 km/h 53 % 0.0 mm
11:41 9.6 °C 0.5 °C 1030.0 hPa SSE 1.9 km/h 1.9 km/h 53 % 0.0 mm
11:46 9.5 °C 0.4 °C 1030.0 hPa NNE 3.7 km/h 3.7 km/h 53 % 0.0 mm
11:51 9.5 °C 0.4 °C 1030.0 hPa ESE 3.7 km/h 3.7 km/h 53 % 0.0 mm
11:57 9.6 °C 0.2 °C 1030.0 hPa South 3.7 km/h   52 % 0.0 mm
12:02 10.4 °C 1.2 °C 1030.0 hPa South 1.9 km/h   53 % 0.0 mm
12:07 10.2 °C 1.1 °C 1030.0 hPa NNW 3.7 km/h 3.7 km/h 53 % 0.0 mm
12:12 10.7 °C 1.5 °C 1030.0 hPa ENE 2.3 km/h   53 % 0.0 mm
12:17 10.5 °C 1.1 °C 1030.0 hPa WNW 3.7 km/h 3.7 km/h 52 % 0.0 mm
12:22 10.7 °C 1.2 °C 1030.0 hPa East 3.7 km/h 3.7 km/h 52 % 0.0 mm
12:27 10.6 °C 1.2 °C 1030.0 hPa East 5.6 km/h 5.6 km/h 52 % 0.0 mm
12:32 10.6 °C 1.2 °C 1030.0 hPa NE 7.4 km/h 7.4 km/h 52 % 0.0 mm
12:42 10.7 °C 1.2 °C 1030.0 hPa WSW 3.7 km/h 3.7 km/h 52 % 0.0 mm
12:47 11.3 °C 1.8 °C 1029.0 hPa ENE 5.0 km/h 5.0 km/h 52 % 0.0 mm
12:52 11.2 °C 1.7 °C 1029.0 hPa NE 5.6 km/h 5.6 km/h 52 % 0.0 mm
12:57 11.3 °C 1.8 °C 1029.0 hPa NNW 5.6 km/h 5.6 km/h 52 % 0.0 mm
13:02 11.7 °C 2.2 °C 1029.0 hPa NW 7.4 km/h 7.4 km/h 52 % 0.0 mm
13:07 12.2 °C 2.6 °C 1029.0 hPa SW 11.1 km/h 11.1 km/h 52 % 0.0 mm
13:12 12.2 °C 2.3 °C 1029.0 hPa WSW 4.2 km/h 4.2 km/h 51 % 0.0 mm
13:17 12.5 °C 2.6 °C 1028.0 hPa WSW 6.4 km/h 6.4 km/h 51 % 0.0 mm
13:22 12.5 °C 2.6 °C 1028.0 hPa WSW 7.4 km/h 7.4 km/h 51 % 0.0 mm
13:27 12.7 °C 2.8 °C 1028.0 hPa WSW 3.7 km/h 3.7 km/h 51 % 0.0 mm
13:32 12.9 °C 3.0 °C 1028.0 hPa SW 10.0 km/h 10.0 km/h 51 % 0.0 mm
13:37 12.7 °C 2.8 °C 1028.0 hPa WSW 7.9 km/h 7.9 km/h 51 % 0.0 mm
13:42 12.7 °C 2.6 °C 1028.0 hPa West 3.9 km/h 3.9 km/h 50 % 0.0 mm
13:47 12.7 °C 2.6 °C 1028.0 hPa SSW 9.7 km/h 9.7 km/h 50 % 0.0 mm
13:57 12.3 °C 1.9 °C 1028.0 hPa SW 7.4 km/h 7.4 km/h 49 % 0.0 mm
14:02 12.2 °C 1.8 °C 1028.0 hPa West 7.4 km/h 7.4 km/h 49 % 0.0 mm
14:07 12.2 °C 1.8 °C 1028.0 hPa SSW 5.6 km/h 5.6 km/h 49 % 0.0 mm
14:08 12.2 °C 1.8 °C 1028.0 hPa SW 5.6 km/h 5.6 km/h 49 % 0.0 mm
14:13 12.1 °C 1.7 °C 1028.0 hPa WSW 6.4 km/h 6.4 km/h 49 % 0.0 mm
14:18 12.1 °C 1.7 °C 1028.0 hPa WSW 6.4 km/h 6.4 km/h 49 % 0.0 mm
14:23 12.1 °C 1.7 °C 1028.0 hPa WSW 3.7 km/h 3.7 km/h 49 % 0.0 mm
14:28 12.3 °C 1.9 °C 1028.0 hPa SSW 5.6 km/h 5.6 km/h 49 % 0.0 mm
14:33 12.4 °C 1.9 °C 1028.0 hPa WSW 5.6 km/h 5.6 km/h 49 % 0.0 mm
14:38 12.5 °C 2.1 °C 1028.0 hPa WSW 5.6 km/h 5.6 km/h 49 % 0.0 mm
14:43 12.5 °C 2.1 °C 1028.0 hPa SW 5.0 km/h 5.0 km/h 49 % 0.0 mm
14:48 12.4 °C 1.9 °C 1028.0 hPa SW 3.7 km/h 3.7 km/h 49 % 0.0 mm
14:53 12.5 °C 2.1 °C 1028.0 hPa SSW 7.4 km/h 7.4 km/h 49 % 0.0 mm
14:58 12.7 °C 2.2 °C 1028.0 hPa SW 1.9 km/h 1.9 km/h 49 % 0.0 mm
15:03 12.7 °C 2.2 °C 1027.0 hPa SW 5.6 km/h 5.6 km/h 49 % 0.0 mm
15:13 12.7 °C 2.2 °C 1027.0 hPa SW 3.7 km/h 3.7 km/h 49 % 0.0 mm
15:18 12.5 °C 2.1 °C 1027.0 hPa SSW 7.4 km/h 7.4 km/h 49 % 0.0 mm
15:23 12.3 °C 1.6 °C 1027.0 hPa SW 3.7 km/h 3.7 km/h 48 % 0.0 mm
15:28 12.3 °C 1.6 °C 1027.0 hPa SW 3.7 km/h 3.7 km/h 48 % 0.0 mm
15:33 12.3 °C 1.6 °C 1027.0 hPa SW 4.2 km/h   48 % 0.0 mm
15:38 12.2 °C 1.5 °C 1027.0 hPa SSW 5.6 km/h 5.6 km/h 48 % 0.0 mm
15:43 12.1 °C 1.4 °C 1027.0 hPa WSW 5.6 km/h 5.6 km/h 48 % 0.0 mm
15:48 12.0 °C 1.3 °C 1027.0 hPa SW 5.6 km/h 5.6 km/h 48 % 0.0 mm
15:53 11.8 °C 1.1 °C 1027.0 hPa SW 5.6 km/h 5.6 km/h 48 % 0.0 mm
15:58 11.9 °C 1.2 °C 1027.0 hPa WSW 3.7 km/h 3.7 km/h 48 % 0.0 mm
16:03 11.8 °C 1.1 °C 1027.0 hPa WSW 1.9 km/h   48 % 0.0 mm
16:08 11.8 °C 1.1 °C 1027.0 hPa Calm     48 % 0.0 mm
16:13 11.7 °C 1.1 °C 1027.0 hPa Calm     48 % 0.0 mm
16:18 11.6 °C 0.9 °C 1028.0 hPa Calm     48 % 0.0 mm
16:23 11.4 °C 0.8 °C 1028.0 hPa Calm     48 % 0.0 mm
16:28 11.3 °C 0.7 °C 1028.0 hPa Calm     48 % 0.0 mm
16:33 11.2 °C 0.6 °C 1027.0 hPa Calm     48 % 0.0 mm
16:38 11.1 °C 0.5 °C 1027.0 hPa Calm     48 % 0.0 mm
16:43 11.1 °C 0.8 °C 1027.0 hPa SW 3.7 km/h 3.7 km/h 49 % 0.0 mm
16:48 11.1 °C 0.8 °C 1027.0 hPa Calm     49 % 0.0 mm
16:53 11.0 °C 0.7 °C 1027.0 hPa WSW 2.3 km/h 2.3 km/h 49 % 0.0 mm
16:58 10.8 °C 0.5 °C 1027.0 hPa WSW 1.9 km/h 1.9 km/h 49 % 0.0 mm
17:03 10.6 °C 0.3 °C 1026.0 hPa WSW 1.9 km/h   49 % 0.0 mm
17:08 10.4 °C 0.1 °C 1026.0 hPa WSW 1.9 km/h 1.9 km/h 49 % 0.0 mm
17:13 10.3 °C 0.1 °C 1026.0 hPa WSW 2.3 km/h 2.3 km/h 49 % 0.0 mm
17:15 10.2 °C -0.1 °C 1026.0 hPa WSW 3.2 km/h 3.2 km/h 49 % 0.0 mm
17:20 10.1 °C -0.2 °C 1026.0 hPa WSW 3.7 km/h 3.7 km/h 49 % 0.0 mm
17:25 9.9 °C -0.3 °C 1026.0 hPa WSW 3.7 km/h 3.7 km/h 49 % 0.0 mm
17:30 9.7 °C -0.5 °C 1026.0 hPa WSW 1.9 km/h 1.9 km/h 49 % 0.0 mm
17:35 9.6 °C -0.6 °C 1026.0 hPa WSW 3.7 km/h 3.7 km/h 49 % 0.0 mm
17:40 9.5 °C -0.7 °C 1026.0 hPa Calm     49 % 0.0 mm
17:45 9.3 °C -0.6 °C 1026.0 hPa Calm     50 % 0.0 mm
17:50 9.2 °C -0.7 °C 1026.0 hPa Calm     50 % 0.0 mm
17:55 9.0 °C -0.9 °C 1026.0 hPa Calm     50 % 0.0 mm
18:00 8.9 °C -1.0 °C 1026.0 hPa WSW 1.9 km/h 2.3 km/h 50 % 0.0 mm
18:05 8.8 °C -1.1 °C 1026.0 hPa West 4.7 km/h 4.7 km/h 50 % 0.0 mm
18:10 8.8 °C -1.1 °C 1026.0 hPa WSW 3.9 km/h 3.9 km/h 50 % 0.0 mm
18:15 8.7 °C -0.9 °C 1026.0 hPa WSW 1.9 km/h   51 % 0.0 mm
18:20 8.6 °C -1.0 °C 1026.0 hPa WSW 3.7 km/h 3.7 km/h 51 % 0.0 mm
18:25 8.5 °C -1.1 °C 1026.0 hPa Calm     51 % 0.0 mm
18:30 8.4 °C -1.2 °C 1026.0 hPa WSW 1.9 km/h   51 % 0.0 mm
18:35 8.2 °C -1.3 °C 1026.0 hPa WSW 1.9 km/h   51 % 0.0 mm
18:40 8.1 °C -1.2 °C 1026.0 hPa Calm     52 % 0.0 mm
18:45 7.9 °C -1.4 °C 1026.0 hPa Calm     52 % 0.0 mm
18:50 7.8 °C -1.4 °C 1026.0 hPa Calm     52 % 0.0 mm
18:55 7.8 °C -1.4 °C 1026.0 hPa SW 2.3 km/h 2.3 km/h 52 % 0.0 mm
19:00 7.7 °C -1.3 °C 1026.0 hPa Calm     53 % 0.0 mm
19:05 7.5 °C -1.5 °C 1026.0 hPa Calm     53 % 0.0 mm
19:10 7.6 °C -1.4 °C 1026.0 hPa WSW 2.6 km/h   53 % 0.0 mm
19:15 7.6 °C -1.4 °C 1026.0 hPa Calm     53 % 0.0 mm
19:20 7.7 °C -1.3 °C 1026.0 hPa SW 3.7 km/h 3.7 km/h 53 % 0.0 mm
19:25 7.7 °C -1.1 °C 1026.0 hPa WSW 1.9 km/h   54 % 0.0 mm
19:30 7.8 °C -0.9 °C 1026.0 hPa WSW 3.7 km/h 3.7 km/h 54 % 0.0 mm
19:35 7.7 °C -1.1 °C 1026.0 hPa WSW 3.7 km/h 3.7 km/h 54 % 0.0 mm
19:40 7.7 °C -1.1 °C 1026.0 hPa WSW 4.2 km/h 4.2 km/h 54 % 0.0 mm
19:45 7.7 °C -1.1 °C 1026.0 hPa SW 4.2 km/h 4.2 km/h 54 % 0.0 mm
19:50 7.7 °C -1.1 °C 1026.0 hPa SW 3.7 km/h 3.7 km/h 54 % 0.0 mm
19:55 7.6 °C -1.1 °C 1026.0 hPa SW 3.7 km/h 3.7 km/h 54 % 0.0 mm
20:00 7.6 °C -1.1 °C 1026.0 hPa SW 5.6 km/h 5.6 km/h 54 % 0.0 mm
20:05 7.5 °C -0.9 °C 1026.0 hPa SW 1.9 km/h 1.9 km/h 55 % 0.0 mm
20:10 7.5 °C -0.9 °C 1026.0 hPa SW 3.7 km/h 3.7 km/h 55 % 0.0 mm
20:15 7.4 °C -1.1 °C 1026.0 hPa SW 1.9 km/h   55 % 0.0 mm
20:20 7.3 °C -1.2 °C 1026.0 hPa SW 1.9 km/h 1.9 km/h 55 % 0.0 mm
20:25 7.2 °C -1.0 °C 1026.0 hPa Calm     56 % 0.0 mm
20:30 7.1 °C -1.1 °C 1026.0 hPa SW 1.4 km/h   56 % 0.0 mm
20:35 7.0 °C -1.2 °C 1026.0 hPa Calm     56 % 0.0 mm
20:40 6.9 °C -1.6 °C 1026.0 hPa Calm     55 % 0.0 mm
20:45 6.8 °C -1.6 °C 1026.0 hPa Calm     55 % 0.0 mm
20:50 6.8 °C -1.6 °C 1026.0 hPa Calm     55 % 0.0 mm
20:55 6.7 °C -1.7 °C 1026.0 hPa ENE 3.7 km/h 3.7 km/h 55 % 0.0 mm
21:00 6.5 °C -1.7 °C 1026.0 hPa ENE 1.9 km/h   56 % 0.0 mm
21:05 6.3 °C -1.8 °C 1026.0 hPa Calm     56 % 0.0 mm
21:10 6.3 °C -1.6 °C 1026.0 hPa Calm     57 % 0.0 mm
21:15 6.1 °C -1.8 °C 1024.9 hPa Calm     57 % 0.0 mm
21:20 6.0 °C -1.9 °C 1024.9 hPa SW 1.9 km/h   57 % 0.0 mm
21:25 5.8 °C -2.1 °C 1024.9 hPa Calm     57 % 0.0 mm
21:30 5.8 °C -2.1 °C 1023.9 hPa SE 2.3 km/h   57 % 0.0 mm
21:35 5.7 °C -1.9 °C 1023.9 hPa Calm     58 % 0.0 mm
21:40 5.6 °C -2.0 °C 1023.9 hPa South 3.7 km/h   58 % 0.0 mm
21:45 5.5 °C -2.1 °C 1023.9 hPa WSW 1.9 km/h 1.9 km/h 58 % 0.0 mm
21:50 5.4 °C -2.2 °C 1023.9 hPa Calm     58 % 0.0 mm
21:55 5.3 °C -2.3 °C 1023.9 hPa WSW 1.9 km/h   58 % 0.0 mm
22:00 5.2 °C -2.4 °C 1023.9 hPa SW 1.9 km/h 1.9 km/h 58 % 0.0 mm
22:05 5.1 °C -2.5 °C 1023.9 hPa Calm     58 % 0.0 mm
22:10 5.1 °C -2.5 °C 1023.9 hPa WSW 3.7 km/h 3.7 km/h 58 % 0.0 mm
22:15 5.1 °C -2.5 °C 1023.9 hPa WSW 2.3 km/h   58 % 0.0 mm
22:20 5.1 °C -2.3 °C 1023.9 hPa Calm     59 % 0.0 mm
22:25 5.1 °C -2.1 °C 1023.9 hPa Calm     60 % 0.0 mm
22:30 5.1 °C -2.1 °C 1023.9 hPa Calm     60 % 0.0 mm
22:33 5.1 °C -2.1 °C 1023.9 hPa Calm     60 % 0.0 mm
22:35 2.7 °C -2.8 °C 1019.9 hPa NW 1.6 km/h 3.2 km/h 67 % 0.0 mm
22:38 5.1 °C -2.1 °C 1023.9 hPa Calm     60 % 0.0 mm
22:43 5.1 °C -2.1 °C 1023.9 hPa Calm     60 % 0.0 mm
22:45 2.6 °C -2.9 °C 1019.9 hPa Calm   1.6 km/h 67 % 0.0 mm
22:48 5.1 °C -2.1 °C 1023.9 hPa NNE 3.7 km/h 3.7 km/h 60 % 0.0 mm
22:53 5.0 °C -1.9 °C 1023.9 hPa NNE 1.9 km/h   61 % 0.0 mm
22:55 2.6 °C -2.9 °C 1019.9 hPa Calm     67 % 0.0 mm
22:58 5.0 °C -1.9 °C 1023.9 hPa NE 3.7 km/h 3.7 km/h 61 % 0.0 mm
23:03 4.9 °C -2.0 °C 1023.9 hPa NE 3.7 km/h 3.7 km/h 61 % 0.0 mm
23:05 2.5 °C -3.0 °C 1019.9 hPa Calm     67 % 0.0 mm
23:08 4.9 °C -2.0 °C 1023.9 hPa NE 1.9 km/h   61 % 0.0 mm
23:13 4.8 °C -2.1 °C 1023.9 hPa East 3.7 km/h 3.7 km/h 61 % 0.0 mm
23:15 2.4 °C -3.1 °C 1019.9 hPa NNE 1.6 km/h 1.6 km/h 67 % 0.0 mm
23:18 4.8 °C -2.1 °C 1023.9 hPa Calm     61 % 0.0 mm
23:23 4.7 °C -2.2 °C 1023.9 hPa Calm     61 % 0.0 mm
23:25 2.4 °C -3.1 °C 1019.9 hPa Calm   1.6 km/h 67 % 0.0 mm
23:28 4.6 °C -2.3 °C 1023.9 hPa SW 1.9 km/h 1.9 km/h 61 % 0.0 mm
23:33 4.5 °C -2.4 °C 1023.9 hPa SW 1.9 km/h 1.9 km/h 61 % 0.0 mm
23:35 2.4 °C -3.1 °C 1018.8 hPa Calm   3.2 km/h 67 % 0.0 mm
23:38 4.4 °C -2.5 °C 1023.9 hPa SW 1.9 km/h   61 % 0.0 mm
23:43 4.4 °C -2.5 °C 1023.9 hPa SW 3.7 km/h 3.7 km/h 61 % 0.0 mm
23:45 2.3 °C -3.2 °C 1018.8 hPa Calm   3.2 km/h 67 % 0.0 mm
23:48 4.4 °C -2.5 °C 1023.9 hPa SW 1.9 km/h   61 % 0.0 mm
23:53 4.3 °C -2.6 °C 1023.9 hPa Calm     61 % 0.0 mm
23:55 2.2 °C -3.3 °C 1018.8 hPa WSW 1.6 km/h 3.2 km/h 67 % 0.0 mm
23:58 4.3 °C -2.3 °C 1023.9 hPa Calm     62 % 0.0 mm
Meteo Sesrovires
Elogis d' Weather Underground - 3.5 mb

Guio original per  Jim McMurry - jmcmurry@mwt.net Adaptat per a la plantilla per  Wim van der Kuil - Leuven-Template.eu

Trobareu la nostra informacio del temps tambe a:

Weather Underground

AWEKAS